sensor_id;sensor_type;location;lat;lon;timestamp;temperature;humidity
46309;DHT22;32037;50.820;6.494;2023-09-08T00:02:06;24.90;62.50
46309;DHT22;32037;50.820;6.494;2023-09-08T00:04:53;24.90;62.50
46309;DHT22;32037;50.820;6.494;2023-09-08T00:07:40;24.90;62.50
46309;DHT22;32037;50.820;6.494;2023-09-08T00:10:28;24.90;62.60
46309;DHT22;32037;50.820;6.494;2023-09-08T00:13:15;24.90;62.50
46309;DHT22;32037;50.820;6.494;2023-09-08T00:16:03;24.90;62.60
46309;DHT22;32037;50.820;6.494;2023-09-08T00:18:51;24.90;62.60
46309;DHT22;32037;50.820;6.494;2023-09-08T00:21:38;24.90;62.50
46309;DHT22;32037;50.820;6.494;2023-09-08T00:24:25;24.90;62.60
46309;DHT22;32037;50.820;6.494;2023-09-08T00:27:12;24.90;62.50
46309;DHT22;32037;50.820;6.494;2023-09-08T00:29:59;24.90;62.30
46309;DHT22;32037;50.820;6.494;2023-09-08T00:32:47;24.90;62.40
46309;DHT22;32037;50.820;6.494;2023-09-08T00:35:36;24.90;62.30
46309;DHT22;32037;50.820;6.494;2023-09-08T00:38:24;24.90;62.30
46309;DHT22;32037;50.820;6.494;2023-09-08T00:41:11;24.90;62.40
46309;DHT22;32037;50.820;6.494;2023-09-08T00:43:59;24.90;62.30
46309;DHT22;32037;50.820;6.494;2023-09-08T00:46:45;24.80;62.30
46309;DHT22;32037;50.820;6.494;2023-09-08T00:49:33;24.90;62.40
46309;DHT22;32037;50.820;6.494;2023-09-08T00:52:21;24.90;62.40
46309;DHT22;32037;50.820;6.494;2023-09-08T00:55:08;24.90;62.40
46309;DHT22;32037;50.820;6.494;2023-09-08T00:57:56;24.90;63.80
46309;DHT22;32037;50.820;6.494;2023-09-08T01:00:44;24.90;62.50
46309;DHT22;32037;50.820;6.494;2023-09-08T01:03:31;24.90;62.30
46309;DHT22;32037;50.820;6.494;2023-09-08T01:06:19;24.80;62.20
46309;DHT22;32037;50.820;6.494;2023-09-08T01:09:08;24.80;62.20
46309;DHT22;32037;50.820;6.494;2023-09-08T01:11:55;24.80;62.30
46309;DHT22;32037;50.820;6.494;2023-09-08T01:14:47;24.80;62.30
46309;DHT22;32037;50.820;6.494;2023-09-08T01:17:34;24.80;62.30
46309;DHT22;32037;50.820;6.494;2023-09-08T01:20:25;24.80;62.30
46309;DHT22;32037;50.820;6.494;2023-09-08T01:23:18;24.80;62.50
46309;DHT22;32037;50.820;6.494;2023-09-08T01:26:10;24.80;62.10
46309;DHT22;32037;50.820;6.494;2023-09-08T01:28:59;24.80;62.20
46309;DHT22;32037;50.820;6.494;2023-09-08T01:31:46;24.80;62.20
46309;DHT22;32037;50.820;6.494;2023-09-08T01:34:34;24.80;62.20
46309;DHT22;32037;50.820;6.494;2023-09-08T01:37:23;24.80;62.30
46309;DHT22;32037;50.820;6.494;2023-09-08T01:40:11;24.80;62.20
46309;DHT22;32037;50.820;6.494;2023-09-08T01:43:00;24.80;62.20
46309;DHT22;32037;50.820;6.494;2023-09-08T01:45:47;24.80;62.30
46309;DHT22;32037;50.820;6.494;2023-09-08T01:48:34;24.80;62.30
46309;DHT22;32037;50.820;6.494;2023-09-08T01:51:22;24.80;62.30
46309;DHT22;32037;50.820;6.494;2023-09-08T01:54:08;24.80;62.30
46309;DHT22;32037;50.820;6.494;2023-09-08T01:56:56;24.80;62.20
46309;DHT22;32037;50.820;6.494;2023-09-08T01:59:44;24.80;62.30
46309;DHT22;32037;50.820;6.494;2023-09-08T02:02:32;24.80;62.20
46309;DHT22;32037;50.820;6.494;2023-09-08T02:05:19;24.80;62.30
46309;DHT22;32037;50.820;6.494;2023-09-08T02:08:07;24.70;62.10
46309;DHT22;32037;50.820;6.494;2023-09-08T02:10:54;24.80;62.30
46309;DHT22;32037;50.820;6.494;2023-09-08T02:13:42;24.70;62.10
46309;DHT22;32037;50.820;6.494;2023-09-08T02:16:30;24.70;62.10
46309;DHT22;32037;50.820;6.494;2023-09-08T02:19:17;24.70;62.30
46309;DHT22;32037;50.820;6.494;2023-09-08T02:22:05;24.70;62.20
46309;DHT22;32037;50.820;6.494;2023-09-08T02:24:52;24.70;62.30
46309;DHT22;32037;50.820;6.494;2023-09-08T02:27:39;24.70;62.20
46309;DHT22;32037;50.820;6.494;2023-09-08T02:30:26;24.70;62.20
46309;DHT22;32037;50.820;6.494;2023-09-08T02:33:15;24.70;62.30
46309;DHT22;32037;50.820;6.494;2023-09-08T02:36:04;24.70;62.50
46309;DHT22;32037;50.820;6.494;2023-09-08T02:38:54;24.70;62.40
46309;DHT22;32037;50.820;6.494;2023-09-08T02:41:41;24.70;62.50
46309;DHT22;32037;50.820;6.494;2023-09-08T02:44:29;24.70;62.30
46309;DHT22;32037;50.820;6.494;2023-09-08T02:47:16;24.70;62.30
46309;DHT22;32037;50.820;6.494;2023-09-08T02:50:06;24.70;62.30
46309;DHT22;32037;50.820;6.494;2023-09-08T02:52:54;24.70;62.40
46309;DHT22;32037;50.820;6.494;2023-09-08T02:55:40;24.70;62.30
46309;DHT22;32037;50.820;6.494;2023-09-08T02:58:27;24.70;62.30
46309;DHT22;32037;50.820;6.494;2023-09-08T03:01:15;24.60;62.30
46309;DHT22;32037;50.820;6.494;2023-09-08T03:04:06;24.70;62.20
46309;DHT22;32037;50.820;6.494;2023-09-08T03:06:55;24.60;62.30
46309;DHT22;32037;50.820;6.494;2023-09-08T03:09:42;24.60;62.10
46309;DHT22;32037;50.820;6.494;2023-09-08T03:12:30;24.60;62.10
46309;DHT22;32037;50.820;6.494;2023-09-08T03:15:19;24.60;62.10
46309;DHT22;32037;50.820;6.494;2023-09-08T03:18:06;24.60;62.10
46309;DHT22;32037;50.820;6.494;2023-09-08T03:20:53;24.60;63.30
46309;DHT22;32037;50.820;6.494;2023-09-08T03:23:42;24.60;62.00
46309;DHT22;32037;50.820;6.494;2023-09-08T03:26:30;24.50;62.00
46309;DHT22;32037;50.820;6.494;2023-09-08T03:29:18;24.50;62.00
46309;DHT22;32037;50.820;6.494;2023-09-08T03:32:05;24.50;62.00
46309;DHT22;32037;50.820;6.494;2023-09-08T03:34:53;24.50;62.00
46309;DHT22;32037;50.820;6.494;2023-09-08T03:37:40;24.50;62.00
46309;DHT22;32037;50.820;6.494;2023-09-08T03:40:29;24.50;61.90
46309;DHT22;32037;50.820;6.494;2023-09-08T03:43:16;24.50;61.80
46309;DHT22;32037;50.820;6.494;2023-09-08T03:46:02;24.50;61.40
46309;DHT22;32037;50.820;6.494;2023-09-08T03:48:50;24.40;61.70
46309;DHT22;32037;50.820;6.494;2023-09-08T03:51:37;24.40;61.80
46309;DHT22;32037;50.820;6.494;2023-09-08T03:54:24;24.40;61.80
46309;DHT22;32037;50.820;6.494;2023-09-08T03:57:12;24.40;61.90
46309;DHT22;32037;50.820;6.494;2023-09-08T03:59:59;24.40;62.00
46309;DHT22;32037;50.820;6.494;2023-09-08T04:02:46;24.40;62.10
46309;DHT22;32037;50.820;6.494;2023-09-08T04:05:34;24.40;62.10
46309;DHT22;32037;50.820;6.494;2023-09-08T04:08:21;24.50;61.90
46309;DHT22;32037;50.820;6.494;2023-09-08T04:11:08;24.40;61.70
46309;DHT22;32037;50.820;6.494;2023-09-08T04:13:56;24.40;61.70
46309;DHT22;32037;50.820;6.494;2023-09-08T04:16:44;24.40;61.80
46309;DHT22;32037;50.820;6.494;2023-09-08T04:19:31;24.40;61.90
46309;DHT22;32037;50.820;6.494;2023-09-08T04:22:17;24.40;62.10
46309;DHT22;32037;50.820;6.494;2023-09-08T04:25:05;24.40;62.10
46309;DHT22;32037;50.820;6.494;2023-09-08T04:27:52;24.40;61.90
46309;DHT22;32037;50.820;6.494;2023-09-08T04:30:41;24.40;61.90
46309;DHT22;32037;50.820;6.494;2023-09-08T04:33:29;24.40;61.80
46309;DHT22;32037;50.820;6.494;2023-09-08T04:36:16;24.40;62.00
46309;DHT22;32037;50.820;6.494;2023-09-08T04:39:04;24.40;61.90
46309;DHT22;32037;50.820;6.494;2023-09-08T04:41:51;24.40;61.90
46309;DHT22;32037;50.820;6.494;2023-09-08T04:44:38;24.40;61.80
46309;DHT22;32037;50.820;6.494;2023-09-08T04:47:27;24.40;61.70
46309;DHT22;32037;50.820;6.494;2023-09-08T04:50:14;24.40;61.90
46309;DHT22;32037;50.820;6.494;2023-09-08T04:53:03;24.30;61.60
46309;DHT22;32037;50.820;6.494;2023-09-08T04:55:50;24.30;61.70
46309;DHT22;32037;50.820;6.494;2023-09-08T04:58:38;24.30;61.80
46309;DHT22;32037;50.820;6.494;2023-09-08T05:01:25;24.30;62.00
46309;DHT22;32037;50.820;6.494;2023-09-08T05:04:14;24.30;61.90
46309;DHT22;32037;50.820;6.494;2023-09-08T05:07:01;24.30;62.00
46309;DHT22;32037;50.820;6.494;2023-09-08T05:09:48;24.30;61.90
46309;DHT22;32037;50.820;6.494;2023-09-08T05:12:36;24.30;61.70
46309;DHT22;32037;50.820;6.494;2023-09-08T05:15:23;24.30;61.90
46309;DHT22;32037;50.820;6.494;2023-09-08T05:18:12;24.30;62.20
46309;DHT22;32037;50.820;6.494;2023-09-08T05:21:00;24.30;62.00
46309;DHT22;32037;50.820;6.494;2023-09-08T05:23:48;24.30;61.90
46309;DHT22;32037;50.820;6.494;2023-09-08T05:26:37;24.30;61.90
46309;DHT22;32037;50.820;6.494;2023-09-08T05:29:25;24.30;62.10
46309;DHT22;32037;50.820;6.494;2023-09-08T05:32:12;24.30;62.10
46309;DHT22;32037;50.820;6.494;2023-09-08T05:34:59;24.30;62.00
46309;DHT22;32037;50.820;6.494;2023-09-08T05:37:48;24.30;62.10
46309;DHT22;32037;50.820;6.494;2023-09-08T05:40:34;24.30;62.10
46309;DHT22;32037;50.820;6.494;2023-09-08T05:43:24;24.30;62.00
46309;DHT22;32037;50.820;6.494;2023-09-08T05:46:13;24.30;62.10
46309;DHT22;32037;50.820;6.494;2023-09-08T05:49:00;24.30;62.00
46309;DHT22;32037;50.820;6.494;2023-09-08T05:51:48;24.30;62.10
46309;DHT22;32037;50.820;6.494;2023-09-08T05:54:37;24.30;62.00
46309;DHT22;32037;50.820;6.494;2023-09-08T05:57:24;24.20;62.10
46309;DHT22;32037;50.820;6.494;2023-09-08T06:00:13;24.20;62.00
46309;DHT22;32037;50.820;6.494;2023-09-08T06:03:05;24.20;62.00
46309;DHT22;32037;50.820;6.494;2023-09-08T06:05:52;24.20;62.10
46309;DHT22;32037;50.820;6.494;2023-09-08T06:08:39;24.20;62.00
46309;DHT22;32037;50.820;6.494;2023-09-08T06:11:28;24.20;62.10
46309;DHT22;32037;50.820;6.494;2023-09-08T06:14:15;24.20;62.10
46309;DHT22;32037;50.820;6.494;2023-09-08T06:17:05;24.20;62.20
46309;DHT22;32037;50.820;6.494;2023-09-08T06:19:52;24.20;62.10
46309;DHT22;32037;50.820;6.494;2023-09-08T06:22:39;24.20;62.20
46309;DHT22;32037;50.820;6.494;2023-09-08T06:25:27;24.20;62.20
46309;DHT22;32037;50.820;6.494;2023-09-08T06:28:16;24.20;62.40
46309;DHT22;32037;50.820;6.494;2023-09-08T06:31:04;24.10;62.30
46309;DHT22;32037;50.820;6.494;2023-09-08T06:33:51;24.10;62.10
46309;DHT22;32037;50.820;6.494;2023-09-08T06:36:40;24.10;62.30
46309;DHT22;32037;50.820;6.494;2023-09-08T06:39:28;24.10;62.40
46309;DHT22;32037;50.820;6.494;2023-09-08T06:42:15;24.10;62.30
46309;DHT22;32037;50.820;6.494;2023-09-08T06:45:13;24.10;62.50
46309;DHT22;32037;50.820;6.494;2023-09-08T06:48:00;24.10;62.60
46309;DHT22;32037;50.820;6.494;2023-09-08T06:50:47;24.10;62.60
46309;DHT22;32037;50.820;6.494;2023-09-08T06:53:36;24.10;62.60
46309;DHT22;32037;50.820;6.494;2023-09-08T06:56:23;24.10;62.80
46309;DHT22;32037;50.820;6.494;2023-09-08T06:59:11;24.10;62.90
46309;DHT22;32037;50.820;6.494;2023-09-08T07:01:59;24.10;63.00
46309;DHT22;32037;50.820;6.494;2023-09-08T07:04:47;24.10;63.00
46309;DHT22;32037;50.820;6.494;2023-09-08T07:07:34;24.10;62.90
46309;DHT22;32037;50.820;6.494;2023-09-08T07:10:22;24.10;63.00
46309;DHT22;32037;50.820;6.494;2023-09-08T07:13:10;24.10;63.00
46309;DHT22;32037;50.820;6.494;2023-09-08T07:15:57;24.10;63.10
46309;DHT22;32037;50.820;6.494;2023-09-08T07:18:47;24.10;63.10
46309;DHT22;32037;50.820;6.494;2023-09-08T07:21:34;24.10;63.10
46309;DHT22;32037;50.820;6.494;2023-09-08T07:24:21;24.10;63.10
46309;DHT22;32037;50.820;6.494;2023-09-08T07:27:10;24.10;63.20
46309;DHT22;32037;50.820;6.494;2023-09-08T07:29:59;24.10;63.20
46309;DHT22;32037;50.820;6.494;2023-09-08T07:32:48;24.10;63.30
46309;DHT22;32037;50.820;6.494;2023-09-08T07:35:38;24.10;63.20
46309;DHT22;32037;50.820;6.494;2023-09-08T07:38:26;24.10;63.30
46309;DHT22;32037;50.820;6.494;2023-09-08T07:41:13;24.10;63.40
46309;DHT22;32037;50.820;6.494;2023-09-08T07:44:01;24.10;63.40
46309;DHT22;32037;50.820;6.494;2023-09-08T07:46:48;24.10;63.40
46309;DHT22;32037;50.820;6.494;2023-09-08T07:49:37;24.10;63.30
46309;DHT22;32037;50.820;6.494;2023-09-08T07:52:26;24.20;63.50
46309;DHT22;32037;50.820;6.494;2023-09-08T07:55:13;24.20;63.50
46309;DHT22;32037;50.820;6.494;2023-09-08T07:58:01;24.10;63.40
46309;DHT22;32037;50.820;6.494;2023-09-08T08:00:49;24.10;63.40
46309;DHT22;32037;50.820;6.494;2023-09-08T08:03:37;24.10;63.40
46309;DHT22;32037;50.820;6.494;2023-09-08T08:06:24;24.20;63.50
46309;DHT22;32037;50.820;6.494;2023-09-08T08:09:13;24.20;63.50
46309;DHT22;32037;50.820;6.494;2023-09-08T08:12:00;24.10;63.50
46309;DHT22;32037;50.820;6.494;2023-09-08T08:14:47;24.20;63.60
46309;DHT22;32037;50.820;6.494;2023-09-08T08:17:34;24.20;63.70
46309;DHT22;32037;50.820;6.494;2023-09-08T08:20:22;24.20;63.70
46309;DHT22;32037;50.820;6.494;2023-09-08T08:23:10;24.20;63.80
46309;DHT22;32037;50.820;6.494;2023-09-08T08:25:59;24.20;63.80
46309;DHT22;32037;50.820;6.494;2023-09-08T08:28:45;24.20;63.90
46309;DHT22;32037;50.820;6.494;2023-09-08T08:31:33;24.20;63.90
46309;DHT22;32037;50.820;6.494;2023-09-08T08:34:20;24.10;63.80
46309;DHT22;32037;50.820;6.494;2023-09-08T08:37:08;24.20;64.00
46309;DHT22;32037;50.820;6.494;2023-09-08T08:39:59;24.20;64.00
46309;DHT22;32037;50.820;6.494;2023-09-08T08:42:47;24.20;63.90
46309;DHT22;32037;50.820;6.494;2023-09-08T08:45:35;24.20;64.00
46309;DHT22;32037;50.820;6.494;2023-09-08T08:48:23;24.20;64.00
46309;DHT22;32037;50.820;6.494;2023-09-08T08:51:13;24.20;64.00
46309;DHT22;32037;50.820;6.494;2023-09-08T08:54:01;24.20;64.10
46309;DHT22;32037;50.820;6.494;2023-09-08T08:56:49;24.20;64.20
46309;DHT22;32037;50.820;6.494;2023-09-08T08:59:38;24.20;64.20
46309;DHT22;32037;50.820;6.494;2023-09-08T09:02:28;24.20;64.20
46309;DHT22;32037;50.820;6.494;2023-09-08T09:05:15;24.10;64.10
46309;DHT22;32037;50.820;6.494;2023-09-08T09:08:03;24.20;64.20
46309;DHT22;32037;50.820;6.494;2023-09-08T09:10:51;24.20;64.30
46309;DHT22;32037;50.820;6.494;2023-09-08T09:13:38;24.20;64.30
46309;DHT22;32037;50.820;6.494;2023-09-08T09:16:26;24.20;64.20
46309;DHT22;32037;50.820;6.494;2023-09-08T09:19:18;24.20;64.30
46309;DHT22;32037;50.820;6.494;2023-09-08T09:22:12;24.20;64.40
46309;DHT22;32037;50.820;6.494;2023-09-08T09:24:59;24.10;64.20
46309;DHT22;32037;50.820;6.494;2023-09-08T09:27:50;24.20;64.40
46309;DHT22;32037;50.820;6.494;2023-09-08T09:30:47;24.20;64.30
46309;DHT22;32037;50.820;6.494;2023-09-08T09:33:36;24.20;64.40
46309;DHT22;32037;50.820;6.494;2023-09-08T09:36:23;24.20;64.30
46309;DHT22;32037;50.820;6.494;2023-09-08T09:39:09;24.10;64.30
46309;DHT22;32037;50.820;6.494;2023-09-08T09:41:56;24.20;64.40
46309;DHT22;32037;50.820;6.494;2023-09-08T09:44:43;24.20;64.40
46309;DHT22;32037;50.820;6.494;2023-09-08T09:47:30;24.20;64.40
46309;DHT22;32037;50.820;6.494;2023-09-08T09:50:28;24.20;64.50
46309;DHT22;32037;50.820;6.494;2023-09-08T09:53:18;24.20;64.50
46309;DHT22;32037;50.820;6.494;2023-09-08T09:56:05;24.20;64.40
46309;DHT22;32037;50.820;6.494;2023-09-08T09:58:53;24.20;64.50
46309;DHT22;32037;50.820;6.494;2023-09-08T10:01:42;24.20;64.60
46309;DHT22;32037;50.820;6.494;2023-09-08T10:04:32;24.10;64.60
46309;DHT22;32037;50.820;6.494;2023-09-08T10:07:20;24.10;64.50
46309;DHT22;32037;50.820;6.494;2023-09-08T10:10:09;24.20;64.70
46309;DHT22;32037;50.820;6.494;2023-09-08T10:13:01;24.10;64.50
46309;DHT22;32037;50.820;6.494;2023-09-08T10:15:50;24.10;64.60
46309;DHT22;32037;50.820;6.494;2023-09-08T10:18:38;24.20;64.70
46309;DHT22;32037;50.820;6.494;2023-09-08T10:21:27;24.20;64.70
46309;DHT22;32037;50.820;6.494;2023-09-08T10:24:21;24.20;64.70
46309;DHT22;32037;50.820;6.494;2023-09-08T10:27:12;24.20;64.70
46309;DHT22;32037;50.820;6.494;2023-09-08T10:30:00;24.20;64.70
46309;DHT22;32037;50.820;6.494;2023-09-08T10:32:48;24.20;64.90
46309;DHT22;32037;50.820;6.494;2023-09-08T10:35:37;24.20;64.80
46309;DHT22;32037;50.820;6.494;2023-09-08T10:38:25;24.20;64.80
46309;DHT22;32037;50.820;6.494;2023-09-08T10:41:28;24.20;64.90
46309;DHT22;32037;50.820;6.494;2023-09-08T10:44:17;24.20;64.80
46309;DHT22;32037;50.820;6.494;2023-09-08T10:47:04;24.20;64.80
46309;DHT22;32037;50.820;6.494;2023-09-08T10:49:52;24.20;64.80
46309;DHT22;32037;50.820;6.494;2023-09-08T10:52:44;24.20;64.90
46309;DHT22;32037;50.820;6.494;2023-09-08T10:55:35;24.20;64.90
46309;DHT22;32037;50.820;6.494;2023-09-08T10:58:32;24.20;64.90
46309;DHT22;32037;50.820;6.494;2023-09-08T11:01:20;24.20;64.90
46309;DHT22;32037;50.820;6.494;2023-09-08T11:04:13;24.20;64.90
46309;DHT22;32037;50.820;6.494;2023-09-08T11:07:04;24.20;64.90
46309;DHT22;32037;50.820;6.494;2023-09-08T11:09:52;24.20;64.90
46309;DHT22;32037;50.820;6.494;2023-09-08T11:12:39;24.20;65.00
46309;DHT22;32037;50.820;6.494;2023-09-08T11:15:27;24.20;65.00
46309;DHT22;32037;50.820;6.494;2023-09-08T11:18:14;24.20;65.00
46309;DHT22;32037;50.820;6.494;2023-09-08T11:21:04;24.20;65.10
46309;DHT22;32037;50.820;6.494;2023-09-08T11:23:54;24.20;65.00
46309;DHT22;32037;50.820;6.494;2023-09-08T11:26:41;24.20;65.10
46309;DHT22;32037;50.820;6.494;2023-09-08T11:29:31;24.20;65.20
46309;DHT22;32037;50.820;6.494;2023-09-08T11:32:20;24.30;65.20
46309;DHT22;32037;50.820;6.494;2023-09-08T11:35:08;24.20;65.10
46309;DHT22;32037;50.820;6.494;2023-09-08T11:38:00;24.30;65.20
46309;DHT22;32037;50.820;6.494;2023-09-08T11:40:50;24.30;65.20
46309;DHT22;32037;50.820;6.494;2023-09-08T11:43:37;24.30;65.30
46309;DHT22;32037;50.820;6.494;2023-09-08T11:46:24;24.30;65.30
46309;DHT22;32037;50.820;6.494;2023-09-08T11:49:14;24.30;65.20
46309;DHT22;32037;50.820;6.494;2023-09-08T11:52:01;24.30;65.30
46309;DHT22;32037;50.820;6.494;2023-09-08T11:54:49;24.30;65.30
46309;DHT22;32037;50.820;6.494;2023-09-08T11:57:52;24.30;65.40
46309;DHT22;32037;50.820;6.494;2023-09-08T12:00:43;24.30;65.30
46309;DHT22;32037;50.820;6.494;2023-09-08T12:03:33;24.30;65.30
46309;DHT22;32037;50.820;6.494;2023-09-08T12:06:25;24.30;65.30
46309;DHT22;32037;50.820;6.494;2023-09-08T12:09:14;24.30;65.20
46309;DHT22;32037;50.820;6.494;2023-09-08T12:12:03;24.30;65.30
46309;DHT22;32037;50.820;6.494;2023-09-08T12:14:50;24.30;65.30
46309;DHT22;32037;50.820;6.494;2023-09-08T12:17:47;24.30;65.30
46309;DHT22;32037;50.820;6.494;2023-09-08T12:20:35;24.30;65.30
46309;DHT22;32037;50.820;6.494;2023-09-08T12:23:23;24.30;66.60
46309;DHT22;32037;50.820;6.494;2023-09-08T12:26:10;24.30;65.40
46309;DHT22;32037;50.820;6.494;2023-09-08T12:28:57;24.30;65.50
46309;DHT22;32037;50.820;6.494;2023-09-08T12:31:44;24.30;65.40
46309;DHT22;32037;50.820;6.494;2023-09-08T12:34:31;24.40;65.60
46309;DHT22;32037;50.820;6.494;2023-09-08T12:37:23;24.40;66.80
46309;DHT22;32037;50.820;6.494;2023-09-08T12:40:12;24.40;65.70
46309;DHT22;32037;50.820;6.494;2023-09-08T12:43:00;24.40;65.60
46309;DHT22;32037;50.820;6.494;2023-09-08T12:45:54;24.40;66.10
46309;DHT22;32037;50.820;6.494;2023-09-08T12:48:42;24.60;67.00
46309;DHT22;32037;50.820;6.494;2023-09-08T12:51:29;24.70;65.90
46309;DHT22;32037;50.820;6.494;2023-09-08T12:54:16;24.90;65.50
46309;DHT22;32037;50.820;6.494;2023-09-08T12:57:04;24.90;65.30
46309;DHT22;32037;50.820;6.494;2023-09-08T12:59:52;24.90;65.20
46309;DHT22;32037;50.820;6.494;2023-09-08T13:02:39;24.80;65.30
46309;DHT22;32037;50.820;6.494;2023-09-08T13:05:27;24.80;65.50
46309;DHT22;32037;50.820;6.494;2023-09-08T13:08:14;24.80;65.70
46309;DHT22;32037;50.820;6.494;2023-09-08T13:11:01;24.70;65.80
46309;DHT22;32037;50.820;6.494;2023-09-08T13:13:50;24.70;65.80
46309;DHT22;32037;50.820;6.494;2023-09-08T13:16:37;24.70;66.00
46309;DHT22;32037;50.820;6.494;2023-09-08T13:19:24;24.70;66.00
46309;DHT22;32037;50.820;6.494;2023-09-08T13:22:11;24.70;66.10
46309;DHT22;32037;50.820;6.494;2023-09-08T13:24:59;24.70;66.10
46309;DHT22;32037;50.820;6.494;2023-09-08T13:27:46;24.70;66.10
46309;DHT22;32037;50.820;6.494;2023-09-08T13:30:35;24.60;66.00
46309;DHT22;32037;50.820;6.494;2023-09-08T13:33:22;24.70;66.30
46309;DHT22;32037;50.820;6.494;2023-09-08T13:36:09;24.70;66.10
46309;DHT22;32037;50.820;6.494;2023-09-08T13:38:56;24.70;66.10
46309;DHT22;32037;50.820;6.494;2023-09-08T13:41:47;24.70;66.20
46309;DHT22;32037;50.820;6.494;2023-09-08T13:44:35;24.70;66.10
46309;DHT22;32037;50.820;6.494;2023-09-08T13:47:24;24.70;66.00
46309;DHT22;32037;50.820;6.494;2023-09-08T13:50:12;24.70;66.00
46309;DHT22;32037;50.820;6.494;2023-09-08T13:53:02;24.70;65.90
46309;DHT22;32037;50.820;6.494;2023-09-08T13:55:49;24.70;66.00
46309;DHT22;32037;50.820;6.494;2023-09-08T13:58:37;24.70;67.30
46309;DHT22;32037;50.820;6.494;2023-09-08T14:01:27;24.70;66.00
46309;DHT22;32037;50.820;6.494;2023-09-08T14:04:20;24.70;66.00
46309;DHT22;32037;50.820;6.494;2023-09-08T14:07:11;24.70;65.90
46309;DHT22;32037;50.820;6.494;2023-09-08T14:10:06;24.70;65.90
46309;DHT22;32037;50.820;6.494;2023-09-08T14:12:58;24.70;65.80
46309;DHT22;32037;50.820;6.494;2023-09-08T14:15:45;24.80;66.00
46309;DHT22;32037;50.820;6.494;2023-09-08T14:18:33;24.80;66.00
46309;DHT22;32037;50.820;6.494;2023-09-08T14:21:27;24.80;65.90
46309;DHT22;32037;50.820;6.494;2023-09-08T14:24:21;24.80;65.90
46309;DHT22;32037;50.820;6.494;2023-09-08T14:27:09;24.80;65.90
46309;DHT22;32037;50.820;6.494;2023-09-08T14:29:56;24.80;65.90
46309;DHT22;32037;50.820;6.494;2023-09-08T14:32:43;24.80;65.90
46309;DHT22;32037;50.820;6.494;2023-09-08T14:35:30;24.90;66.40
46309;DHT22;32037;50.820;6.494;2023-09-08T14:38:19;24.90;66.20
46309;DHT22;32037;50.820;6.494;2023-09-08T14:41:06;24.90;66.10
46309;DHT22;32037;50.820;6.494;2023-09-08T14:43:53;24.90;65.80
46309;DHT22;32037;50.820;6.494;2023-09-08T14:46:39;24.90;65.80
46309;DHT22;32037;50.820;6.494;2023-09-08T14:49:27;24.90;65.80
46309;DHT22;32037;50.820;6.494;2023-09-08T14:52:14;24.90;65.70
46309;DHT22;32037;50.820;6.494;2023-09-08T14:55:04;24.90;65.80
46309;DHT22;32037;50.820;6.494;2023-09-08T14:57:51;24.90;65.80
46309;DHT22;32037;50.820;6.494;2023-09-08T15:00:38;24.90;65.80
46309;DHT22;32037;50.820;6.494;2023-09-08T15:03:25;24.90;65.90
46309;DHT22;32037;50.820;6.494;2023-09-08T15:06:13;25.00;65.90
46309;DHT22;32037;50.820;6.494;2023-09-08T15:09:03;25.00;65.90
46309;DHT22;32037;50.820;6.494;2023-09-08T15:11:52;25.00;65.90
46309;DHT22;32037;50.820;6.494;2023-09-08T15:14:39;25.00;65.90
46309;DHT22;32037;50.820;6.494;2023-09-08T15:17:26;25.00;65.80
46309;DHT22;32037;50.820;6.494;2023-09-08T15:20:13;25.00;65.80
46309;DHT22;32037;50.820;6.494;2023-09-08T15:23:00;25.00;65.80
46309;DHT22;32037;50.820;6.494;2023-09-08T15:25:52;25.00;65.70
46309;DHT22;32037;50.820;6.494;2023-09-08T15:28:40;25.10;65.70
46309;DHT22;32037;50.820;6.494;2023-09-08T15:31:27;25.10;65.60
46309;DHT22;32037;50.820;6.494;2023-09-08T15:34:14;25.10;65.70
46309;DHT22;32037;50.820;6.494;2023-09-08T15:37:01;25.10;65.60
46309;DHT22;32037;50.820;6.494;2023-09-08T15:39:49;25.00;65.70
46309;DHT22;32037;50.820;6.494;2023-09-08T15:42:36;25.10;65.60
46309;DHT22;32037;50.820;6.494;2023-09-08T15:45:24;25.10;65.50
46309;DHT22;32037;50.820;6.494;2023-09-08T15:48:12;25.10;65.60
46309;DHT22;32037;50.820;6.494;2023-09-08T15:50:59;25.10;65.50
46309;DHT22;32037;50.820;6.494;2023-09-08T15:53:46;25.10;66.80
46309;DHT22;32037;50.820;6.494;2023-09-08T15:56:33;25.10;65.50
46309;DHT22;32037;50.820;6.494;2023-09-08T15:59:20;25.10;65.50
46309;DHT22;32037;50.820;6.494;2023-09-08T16:02:09;25.10;65.30
46309;DHT22;32037;50.820;6.494;2023-09-08T16:04:59;25.10;65.40
46309;DHT22;32037;50.820;6.494;2023-09-08T16:07:46;25.10;65.30
46309;DHT22;32037;50.820;6.494;2023-09-08T16:10:33;25.10;65.40
46309;DHT22;32037;50.820;6.494;2023-09-08T16:13:20;25.10;65.40
46309;DHT22;32037;50.820;6.494;2023-09-08T16:16:08;25.10;65.40
46309;DHT22;32037;50.820;6.494;2023-09-08T16:18:56;25.10;65.60
46309;DHT22;32037;50.820;6.494;2023-09-08T16:21:43;25.10;65.50
46309;DHT22;32037;50.820;6.494;2023-09-08T16:24:30;25.20;65.70
46309;DHT22;32037;50.820;6.494;2023-09-08T16:27:20;25.20;65.70
46309;DHT22;32037;50.820;6.494;2023-09-08T16:30:08;25.20;65.70
46309;DHT22;32037;50.820;6.494;2023-09-08T16:32:57;25.20;65.80
46309;DHT22;32037;50.820;6.494;2023-09-08T16:35:49;25.20;65.80
46309;DHT22;32037;50.820;6.494;2023-09-08T16:38:36;25.20;65.80
46309;DHT22;32037;50.820;6.494;2023-09-08T16:41:23;25.20;65.80
46309;DHT22;32037;50.820;6.494;2023-09-08T16:44:10;25.20;65.80
46309;DHT22;32037;50.820;6.494;2023-09-08T16:46:57;25.20;66.00
46309;DHT22;32037;50.820;6.494;2023-09-08T16:49:44;25.30;65.90
46309;DHT22;32037;50.820;6.494;2023-09-08T16:52:32;25.30;65.90
46309;DHT22;32037;50.820;6.494;2023-09-08T16:55:19;25.20;67.10
46309;DHT22;32037;50.820;6.494;2023-09-08T16:58:06;25.30;65.90
46309;DHT22;32037;50.820;6.494;2023-09-08T17:00:53;25.30;65.90
46309;DHT22;32037;50.820;6.494;2023-09-08T17:03:40;25.30;66.00
46309;DHT22;32037;50.820;6.494;2023-09-08T17:06:28;25.30;66.00
46309;DHT22;32037;50.820;6.494;2023-09-08T17:09:17;25.30;66.00
46309;DHT22;32037;50.820;6.494;2023-09-08T17:12:04;25.30;66.00
46309;DHT22;32037;50.820;6.494;2023-09-08T17:14:53;25.30;66.00
46309;DHT22;32037;50.820;6.494;2023-09-08T17:17:40;25.30;65.90
46309;DHT22;32037;50.820;6.494;2023-09-08T17:20:27;25.40;66.10
46309;DHT22;32037;50.820;6.494;2023-09-08T17:23:16;25.40;66.10
46309;DHT22;32037;50.820;6.494;2023-09-08T17:26:06;25.40;66.10
46309;DHT22;32037;50.820;6.494;2023-09-08T17:28:53;25.40;66.00
46309;DHT22;32037;50.820;6.494;2023-09-08T17:31:40;25.40;66.20
46309;DHT22;32037;50.820;6.494;2023-09-08T17:34:28;25.40;66.20
46309;DHT22;32037;50.820;6.494;2023-09-08T17:37:14;25.40;66.20
46309;DHT22;32037;50.820;6.494;2023-09-08T17:40:01;25.40;66.60
46309;DHT22;32037;50.820;6.494;2023-09-08T17:42:52;25.40;66.60